Time;durP1;ratioP1;P1;durP2;ratioP2;P2;SDS_P1;SDS_P2;PMS_P1;PMS_P2;Temp;Humidity;BMP_temperature;BMP_pressure;BME280_temperature;BME280_humidity;BME280_pressure;Samples;Min_cycle;Max_cycle;Signal;HPM_P1;HPM_P2
2023/05/22 00:01:37;;;;;;;2.35;2.15;;;;;;;25.94;37.00;101386.28;5010037;28;96858;-71
2023/05/22 00:04:04;;;;;;;2.70;2.25;;;;;;;25.94;37.33;101386.28;5008773;28;96769;-71
2023/05/22 00:06:32;;;;;;;2.53;2.33;;;;;;;25.95;37.29;101384.38;5009951;28;96929;-71
2023/05/22 00:08:59;;;;;;;2.40;2.20;;;;;;;25.93;36.96;101387.34;5010018;28;97559;-71
2023/05/22 00:11:26;;;;;;;2.50;2.30;;;;;;;25.94;37.05;101378.03;5010787;28;98165;-71
2023/05/22 00:13:52;;;;;;;2.42;2.22;;;;;;;25.94;37.07;101377.19;5011013;28;97211;-71
2023/05/22 00:16:19;;;;;;;2.42;2.22;;;;;;;25.93;37.12;101379.06;5006015;28;96755;-71
2023/05/22 00:18:46;;;;;;;2.22;2.03;;;;;;;25.93;37.24;101380.97;5013754;28;96778;-71
2023/05/22 00:21:13;;;;;;;3.20;2.35;;;;;;;25.93;37.23;101375.47;5014428;28;97162;-71
2023/05/22 00:23:40;;;;;;;2.13;1.92;;;;;;;25.94;37.28;101374.44;5014291;28;96880;-71
2023/05/22 00:26:06;;;;;;;2.88;2.10;;;;;;;25.93;37.14;101370.81;5013139;28;96806;-71
2023/05/22 00:28:33;;;;;;;2.33;2.13;;;;;;;25.93;37.34;101373.56;5013857;28;97840;-71
2023/05/22 00:31:00;;;;;;;2.42;2.22;;;;;;;25.93;37.07;101361.72;5013633;28;97160;-71
2023/05/22 00:33:26;;;;;;;2.55;2.20;;;;;;;25.92;37.23;101365.50;5012481;28;97000;-71
2023/05/22 00:35:53;;;;;;;2.30;2.10;;;;;;;25.93;37.20;101361.72;5013378;28;96675;-71
2023/05/22 00:38:31;;;;;;;2.70;2.38;;;;;;;25.93;37.29;101358.97;5002983;28;100222;-71
2023/05/22 00:41:03;;;;;;;2.33;2.13;;;;;;;25.92;37.44;101363.63;5013533;28;96748;-71
2023/05/22 00:43:31;;;;;;;1.88;1.77;;;;;;;25.91;37.19;101356.41;5014087;28;97091;-71
2023/05/22 00:45:58;;;;;;;2.33;2.13;;;;;;;25.92;37.22;101362.75;5013172;28;98279;-71
2023/05/22 00:48:25;;;;;;;2.28;2.08;;;;;;;25.92;37.28;101363.63;5011854;28;97314;-71
2023/05/22 00:50:56;;;;;;;2.10;1.90;;;;;;;25.92;37.22;101360.88;5011420;28;97105;-71
2023/05/22 00:53:24;;;;;;;2.30;2.10;;;;;;;25.91;37.25;101361.91;5004596;28;96937;-71
2023/05/22 00:55:53;;;;;;;2.25;2.05;;;;;;;25.92;37.41;101355.34;5008665;28;98717;-71
2023/05/22 00:58:20;;;;;;;2.38;2.17;;;;;;;25.92;37.16;101360.00;5012737;28;96665;-71
2023/05/22 01:00:47;;;;;;;2.28;2.08;;;;;;;25.92;37.19;101366.38;5010093;28;97438;-71
2023/05/22 01:03:14;;;;;;;2.78;2.45;;;;;;;25.91;37.07;101361.91;5011622;28;97084;-71
2023/05/22 01:05:42;;;;;;;2.45;2.25;;;;;;;25.92;37.26;101368.25;5000460;28;97586;-71
2023/05/22 01:08:09;;;;;;;2.40;2.20;;;;;;;25.92;37.29;101362.75;5013254;28;96800;-71
2023/05/22 01:10:38;;;;;;;2.53;1.90;;;;;;;25.92;37.14;101363.63;5012161;28;96927;-71
2023/05/22 01:13:22;;;;;;;2.20;2.00;;;;;;;25.91;37.42;101359.16;5012123;28;97278;-71
2023/05/22 01:16:20;;;;;;;2.50;2.20;;;;;;;25.90;37.36;101357.47;5010273;28;99014;-71
2023/05/22 01:19:08;;;;;;;2.40;2.20;;;;;;;25.89;37.36;101357.66;5013050;28;96928;-72
2023/05/22 01:21:35;;;;;;;2.30;2.10;;;;;;;25.87;37.33;101349.59;5012436;28;96941;-71
2023/05/22 01:24:30;;;;;;;2.33;2.03;;;;;;;25.89;37.47;101354.91;4994718;28;97581;-70
2023/05/22 01:27:15;;;;;;;2.70;2.45;;;;;;;25.88;37.26;101353.19;5010045;28;98533;-71
2023/05/22 01:30:09;;;;;;;2.25;2.05;;;;;;;25.87;37.19;101349.59;5013197;28;98767;-71
2023/05/22 01:32:37;;;;;;;2.03;1.88;;;;;;;25.87;37.30;101352.34;4994760;28;97011;-71
2023/05/22 01:35:09;;;;;;;1.92;1.83;;;;;;;25.88;37.53;101353.19;4988920;28;96840;-71
2023/05/22 01:37:37;;;;;;;2.30;2.10;;;;;;;25.88;37.44;101353.19;5010785;28;99613;-71
2023/05/22 01:40:06;;;;;;;2.35;2.15;;;;;;;25.87;37.49;101354.25;5007900;28;99732;-71
2023/05/22 01:42:33;;;;;;;2.60;2.40;;;;;;;25.88;37.49;101356.81;5010939;28;96833;-71
2023/05/22 01:45:00;;;;;;;2.30;2.10;;;;;;;25.88;37.33;101347.69;5012167;28;96740;-71
2023/05/22 01:47:26;;;;;;;2.53;2.20;;;;;;;25.88;37.15;101348.53;5010451;28;98973;-71
2023/05/22 01:49:53;;;;;;;2.00;1.88;;;;;;;25.88;37.29;101343.03;5010485;28;97644;-71
2023/05/22 01:52:35;;;;;;;2.28;1.90;;;;;;;25.89;37.48;101343.88;5012275;28;97096;-71
2023/05/22 01:55:16;;;;;;;2.35;2.15;;;;;;;25.89;37.24;101342.00;5010789;28;97113;-71
2023/05/22 01:57:52;;;;;;;2.30;2.10;;;;;;;25.88;37.38;101345.78;4991492;28;99327;-71
2023/05/22 02:00:21;;;;;;;2.55;2.35;;;;;;;25.87;37.28;101341.34;5010993;28;99342;-71
2023/05/22 02:03:00;;;;;;;2.10;1.90;;;;;;;25.88;37.60;101342.19;5010689;28;96845;-71
2023/05/22 02:05:28;;;;;;;2.40;2.20;;;;;;;25.88;37.45;101343.03;5008393;28;97147;-71
2023/05/22 02:07:59;;;;;;;2.40;2.20;;;;;;;25.88;37.34;101342.19;5009183;28;99850;-71
2023/05/22 02:10:28;;;;;;;2.40;2.20;;;;;;;25.88;37.54;101337.53;5022487;28;98147;-71
2023/05/22 02:12:55;;;;;;;2.70;2.40;;;;;;;25.88;37.39;101340.28;4993983;28;97030;-71
2023/05/22 02:15:22;;;;;;;2.45;2.25;;;;;;;25.88;37.60;101345.78;5011734;28;96944;-71
2023/05/22 02:17:48;;;;;;;2.35;2.15;;;;;;;25.88;37.72;101342.19;5010343;28;98502;-71
2023/05/22 02:20:15;;;;;;;2.17;1.98;;;;;;;25.88;37.48;101344.94;5004108;28;99587;-71
2023/05/22 02:22:44;;;;;;;2.40;2.20;;;;;;;25.88;37.37;101339.44;5012669;28;97265;-71
2023/05/22 02:25:15;;;;;;;2.47;2.20;;;;;;;25.89;37.45;101341.13;5010466;28;97248;-71
2023/05/22 02:27:44;;;;;;;2.47;2.28;;;;;;;25.88;37.46;101331.19;4993714;28;100676;-71
2023/05/22 02:30:12;;;;;;;2.38;2.17;;;;;;;25.88;37.59;101329.28;5010619;28;96836;-71
2023/05/22 02:32:40;;;;;;;2.30;2.10;;;;;;;25.88;37.60;101325.69;5009933;28;96752;-71
2023/05/22 02:35:07;;;;;;;2.25;2.05;;;;;;;25.88;37.48;101322.94;5010170;28;96759;-70
2023/05/22 02:37:34;;;;;;;2.15;1.95;;;;;;;25.89;37.49;101321.88;5008177;28;98322;-71
2023/05/22 02:40:04;;;;;;;2.40;2.20;;;;;;;25.88;37.43;101320.16;5009947;28;98341;-71
2023/05/22 02:42:31;;;;;;;2.40;2.20;;;;;;;25.87;37.43;101319.31;5002254;28;97211;-71
2023/05/22 02:44:59;;;;;;;2.30;2.10;;;;;;;25.88;37.28;101322.94;5009442;28;96840;-70
2023/05/22 02:47:26;;;;;;;2.47;2.28;;;;;;;25.87;37.42;101310.22;5006647;28;99721;-71
2023/05/22 02:49:53;;;;;;;2.10;1.90;;;;;;;25.87;37.67;101318.47;5009685;28;98848;-71
2023/05/22 02:52:21;;;;;;;2.00;1.73;;;;;;;25.86;37.50;101312.13;5009737;28;96652;-71
2023/05/22 02:54:47;;;;;;;2.30;2.10;;;;;;;25.88;37.38;101315.53;4994077;28;97373;-71
2023/05/22 02:57:14;;;;;;;2.40;2.20;;;;;;;25.87;37.40;101312.97;5009188;28;99067;-71
2023/05/22 02:59:41;;;;;;;2.40;2.20;;;;;;;25.87;37.49;101310.22;5011040;28;96965;-70
2023/05/22 03:02:07;;;;;;;2.50;2.30;;;;;;;25.87;37.48;101310.22;5011437;28;96812;-71
2023/05/22 03:04:37;;;;;;;2.47;2.28;;;;;;;25.87;37.44;101313.81;5011455;28;96970;-71
2023/05/22 03:07:06;;;;;;;2.53;2.33;;;;;;;25.86;37.48;101314.88;5009720;28;99894;-71
2023/05/22 03:09:32;;;;;;;2.33;2.13;;;;;;;25.87;37.28;101323.97;4976567;28;98436;-71
2023/05/22 03:12:00;;;;;;;2.30;2.10;;;;;;;25.85;37.37;101315.91;5009704;28;96787;-71
2023/05/22 03:14:27;;;;;;;2.10;1.90;;;;;;;25.86;37.46;101314.00;5010205;28;96818;-71
2023/05/22 03:16:55;;;;;;;2.40;2.20;;;;;;;25.86;37.56;101319.53;5009104;28;100286;-71
2023/05/22 03:19:22;;;;;;;2.30;2.10;;;;;;;25.85;37.46;101315.91;5009148;28;98104;-71
2023/05/22 03:21:48;;;;;;;2.53;2.28;;;;;;;25.87;37.32;101315.72;5001135;28;96734;-70
2023/05/22 03:24:15;;;;;;;2.40;2.20;;;;;;;25.85;37.73;101313.16;5009662;28;97136;-71
2023/05/22 03:26:42;;;;;;;2.50;2.30;;;;;;;25.85;37.44;101315.91;5010788;28;97280;-72
2023/05/22 03:29:15;;;;;;;2.65;2.28;;;;;;;25.85;37.44;101321.41;5009253;28;96863;-71
2023/05/22 03:31:42;;;;;;;1.80;1.70;;;;;;;25.86;37.54;101308.50;4997123;28;97452;-70
2023/05/22 03:34:12;;;;;;;2.40;2.20;;;;;;;25.85;37.46;101304.06;5008527;28;98521;-71
2023/05/22 03:36:42;;;;;;;2.50;2.30;;;;;;;25.85;37.66;101312.31;4999714;28;99839;-71
2023/05/22 03:39:08;;;;;;;1.95;1.83;;;;;;;25.84;37.63;101311.47;5008201;28;96968;-71
2023/05/22 03:41:40;;;;;;;2.47;2.05;;;;;;;25.85;37.54;101313.16;5007897;28;96663;-70
2023/05/22 03:44:06;;;;;;;2.40;2.20;;;;;;;25.84;37.69;101303.22;5007745;28;96843;-71
2023/05/22 03:46:33;;;;;;;2.25;2.05;;;;;;;25.84;37.53;101303.22;5008886;28;98091;-71
2023/05/22 03:49:00;;;;;;;2.08;1.90;;;;;;;25.84;37.56;101307.84;5006311;28;99232;-71
2023/05/22 03:51:26;;;;;;;2.22;2.03;;;;;;;25.84;37.62;101307.84;5011393;28;96998;-71
2023/05/22 03:53:53;;;;;;;2.20;2.00;;;;;;;25.84;37.49;101307.84;5013249;28;96742;-71
2023/05/22 03:56:20;;;;;;;2.17;1.98;;;;;;;25.85;37.37;101309.56;5011822;28;99132;-71
2023/05/22 03:58:48;;;;;;;2.25;2.05;;;;;;;25.85;37.66;101310.41;5027205;28;98330;-71
2023/05/22 04:01:15;;;;;;;2.50;2.28;;;;;;;25.84;37.56;101302.34;5016063;28;96901;-70
2023/05/22 04:03:42;;;;;;;2.30;2.10;;;;;;;25.83;37.35;101304.25;4996770;28;96829;-71
2023/05/22 04:06:09;;;;;;;2.50;2.30;;;;;;;25.82;37.51;101299.81;4995747;28;99757;-70
2023/05/22 04:08:38;;;;;;;2.20;2.00;;;;;;;25.84;37.73;101307.84;5012917;28;97054;-71
2023/05/22 04:11:04;;;;;;;2.33;2.13;;;;;;;25.82;37.46;101302.56;5013790;28;96613;-71
2023/05/22 04:13:31;;;;;;;2.30;2.10;;;;;;;25.82;37.64;101310.81;5014031;28;97357;-70
2023/05/22 04:16:00;;;;;;;2.65;2.17;;;;;;;25.82;37.59;101305.31;5012057;28;100026;-71
2023/05/22 04:18:27;;;;;;;2.13;1.98;;;;;;;25.82;37.48;101309.97;5014248;28;98798;-70
2023/05/22 04:20:56;;;;;;;2.00;1.85;;;;;;;25.83;37.56;101318.00;5012561;28;96835;-71
2023/05/22 04:23:22;;;;;;;2.00;1.80;;;;;;;25.83;37.64;101314.41;5012568;28;97548;-70
2023/05/22 04:25:49;;;;;;;2.17;2.03;;;;;;;25.83;37.61;101318.00;5011615;28;99020;-71
2023/05/22 04:28:21;;;;;;;2.08;1.88;;;;;;;25.81;37.65;101320.13;5012146;28;97458;-71
2023/05/22 04:30:48;;;;;;;2.28;2.08;;;;;;;25.83;37.44;101326.28;5014307;28;97266;-71
2023/05/22 04:33:16;;;;;;;2.47;2.28;;;;;;;25.82;37.64;101326.47;5007088;28;96800;-71
2023/05/22 04:35:43;;;;;;;1.92;1.83;;;;;;;25.82;37.68;101320.97;5012349;28;97600;-70
2023/05/22 04:38:10;;;;;;;2.40;2.20;;;;;;;25.82;37.73;101321.81;5009305;28;98228;-71
2023/05/22 04:40:36;;;;;;;2.45;2.25;;;;;;;25.81;37.77;101322.88;5013514;28;96719;-71
2023/05/22 04:43:04;;;;;;;2.20;2.00;;;;;;;25.82;37.59;101326.47;5010055;28;96937;-71
2023/05/22 04:45:31;;;;;;;2.50;2.30;;;;;;;25.81;37.68;101331.13;5011107;28;99706;-71
2023/05/22 04:48:01;;;;;;;2.25;2.05;;;;;;;25.81;37.35;101325.63;5014002;28;97356;-71
2023/05/22 04:50:32;;;;;;;1.92;1.83;;;;;;;25.81;37.60;101316.50;5027500;28;96839;-71
2023/05/22 04:52:58;;;;;;;1.90;1.80;;;;;;;25.81;37.57;101311.84;5013661;28;97052;-71
2023/05/22 04:55:25;;;;;;;2.45;1.92;;;;;;;25.81;37.63;101320.13;5013466;28;99072;-71
2023/05/22 04:57:52;;;;;;;2.20;2.00;;;;;;;25.81;37.80;101317.38;5011738;28;98959;-71
2023/05/22 05:00:21;;;;;;;2.28;2.08;;;;;;;25.81;37.86;101324.75;5006359;28;96901;-70
2023/05/22 05:02:48;;;;;;;2.42;2.22;;;;;;;25.81;37.42;101322.00;5010031;28;97304;-71
2023/05/22 05:05:14;;;;;;;2.30;2.10;;;;;;;25.81;37.32;101324.75;5004082;28;98777;-70
2023/05/22 05:07:42;;;;;;;2.03;1.90;;;;;;;25.81;37.47;101322.00;4994278;28;99250;-71
2023/05/22 05:10:09;;;;;;;1.80;1.70;;;;;;;25.80;37.83;101318.41;5011992;28;96862;-71
2023/05/22 05:12:36;;;;;;;2.05;1.85;;;;;;;25.81;37.65;101338.53;5011523;28;96951;-71
2023/05/22 05:15:02;;;;;;;2.35;2.15;;;;;;;25.81;37.59;101335.78;5011141;28;99654;-71
2023/05/22 05:17:29;;;;;;;2.10;1.90;;;;;;;25.81;37.78;101333.88;5010081;28;98582;-71
2023/05/22 05:19:56;;;;;;;2.10;1.90;;;;;;;25.81;37.71;101341.28;5011977;28;96726;-71
2023/05/22 05:22:23;;;;;;;1.83;1.73;;;;;;;25.81;37.30;101346.78;5011500;28;97447;-70
2023/05/22 05:24:49;;;;;;;2.30;2.00;;;;;;;25.80;37.43;101345.94;5009905;28;98444;-70
2023/05/22 05:27:16;;;;;;;2.10;1.90;;;;;;;25.81;37.76;101352.28;5012513;28;97447;-70
2023/05/22 05:29:43;;;;;;;2.00;1.80;;;;;;;25.80;37.86;101348.69;5011280;28;96734;-71
2023/05/22 05:32:20;;;;;;;2.38;2.15;;;;;;;25.79;38.01;101352.47;5009577;28;96984;-71
2023/05/22 05:34:52;;;;;;;2.20;2.00;;;;;;;25.79;37.40;101355.22;5011365;28;96878;-71
2023/05/22 05:37:23;;;;;;;2.10;1.90;;;;;;;25.80;37.61;101347.81;5008181;28;97194;-71
2023/05/22 05:39:51;;;;;;;2.30;2.10;;;;;;;25.80;37.87;101350.56;5011367;28;96839;-70
2023/05/22 05:42:18;;;;;;;2.28;2.08;;;;;;;25.79;37.85;101346.97;5008613;28;97008;-71
2023/05/22 05:44:46;;;;;;;1.92;1.73;;;;;;;25.79;37.65;101344.22;5010146;28;99224;-71
2023/05/22 05:47:13;;;;;;;2.00;1.80;;;;;;;25.80;37.67;101353.31;5010525;28;97417;-71
2023/05/22 05:49:40;;;;;;;2.40;2.20;;;;;;;25.79;37.81;101346.97;5011214;28;97097;-71
2023/05/22 05:52:07;;;;;;;2.15;1.95;;;;;;;25.80;38.20;101350.56;5010693;28;96967;-72
2023/05/22 05:54:35;;;;;;;2.10;1.90;;;;;;;25.80;37.77;101351.44;5009923;28;97102;-72
2023/05/22 05:57:08;;;;;;;2.08;1.88;;;;;;;25.79;37.51;101352.47;5009728;28;97514;-71
2023/05/22 05:59:35;;;;;;;2.22;2.03;;;;;;;25.79;37.24;101357.97;5004991;28;96959;-71
2023/05/22 06:02:21;;;;;;;2.20;2.00;;;;;;;25.77;37.70;101357.31;5010894;28;96673;-71
2023/05/22 06:04:52;;;;;;;2.28;2.08;;;;;;;25.77;37.37;101357.31;5009742;28;98369;-71
2023/05/22 06:07:19;;;;;;;2.10;1.90;;;;;;;25.78;37.58;101363.69;5010580;28;96728;-71
2023/05/22 06:09:49;;;;;;;2.10;1.90;;;;;;;25.77;37.67;101362.81;5009195;28;96876;-71
2023/05/22 06:12:21;;;;;;;1.90;1.77;;;;;;;25.77;37.56;101370.22;5010704;28;96705;-71
2023/05/22 06:14:48;;;;;;;2.03;1.80;;;;;;;25.77;38.49;101371.09;5000516;28;96886;-71
2023/05/22 06:17:15;;;;;;;2.15;2.00;;;;;;;25.77;37.84;101373.84;4993293;28;100422;-71
2023/05/22 06:19:43;;;;;;;2.22;2.03;;;;;;;25.77;37.49;101373.84;5011262;28;97159;-72
2023/05/22 06:22:10;;;;;;;2.35;1.90;;;;;;;25.78;37.83;101380.19;5005270;28;96869;-71
2023/05/22 06:24:39;;;;;;;2.65;2.03;;;;;;;25.78;37.52;101383.78;5001132;28;97593;-71
2023/05/22 06:27:12;;;;;;;2.08;1.90;;;;;;;25.77;37.61;101376.59;5009797;28;99170;-72
2023/05/22 06:29:38;;;;;;;1.70;1.60;;;;;;;25.78;37.71;101374.69;5010695;28;96655;-71
2023/05/22 06:32:08;;;;;;;1.95;1.80;;;;;;;25.78;37.91;101377.44;5002219;28;97354;-71
2023/05/22 06:34:37;;;;;;;1.92;1.73;;;;;;;25.77;37.54;101375.72;5009524;28;97580;-71
2023/05/22 06:37:04;;;;;;;2.00;1.83;;;;;;;25.77;37.70;101387.59;5009642;28;97450;-71
2023/05/22 06:39:36;;;;;;;2.00;1.90;;;;;;;25.77;37.68;101389.50;5010295;28;96877;-71
2023/05/22 06:42:12;;;;;;;1.92;1.83;;;;;;;25.77;37.61;101390.34;5011993;28;96786;-71
2023/05/22 06:44:57;;;;;;;1.90;1.70;;;;;;;25.76;37.77;101385.88;5006950;28;97272;-71
2023/05/22 06:47:33;;;;;;;2.10;1.90;;;;;;;25.76;37.71;101398.78;5008953;28;96826;-71
2023/05/22 06:50:00;;;;;;;2.25;2.05;;;;;;;25.77;37.80;101395.84;5010782;28;97216;-71
2023/05/22 06:52:26;;;;;;;1.92;1.83;;;;;;;25.77;37.52;101404.09;5009654;28;97182;-71
2023/05/22 06:54:53;;;;;;;1.65;1.55;;;;;;;25.78;37.77;101393.94;5008773;28;97260;-71
2023/05/22 06:57:22;;;;;;;2.33;2.13;;;;;;;25.78;37.72;101399.44;5009639;28;97438;-72
2023/05/22 06:59:50;;;;;;;1.67;1.58;;;;;;;25.78;37.83;101405.81;4998583;28;97423;-71
2023/05/22 07:02:35;;;;;;;1.88;1.77;;;;;;;25.77;37.73;101409.59;5009782;28;97158;-71
2023/05/22 07:05:11;;;;;;;1.88;1.77;;;;;;;25.76;37.73;101405.16;5008338;28;96733;-71
2023/05/22 07:07:50;;;;;;;2.00;1.85;;;;;;;25.77;37.72;101414.25;5004758;28;99283;-71
2023/05/22 07:10:17;;;;;;;2.10;1.90;;;;;;;25.77;37.76;101409.59;5004440;28;96655;-71
2023/05/22 07:12:44;;;;;;;2.20;2.00;;;;;;;25.78;38.00;101416.81;5010287;28;96591;-71
2023/05/22 07:15:13;;;;;;;2.20;2.00;;;;;;;25.78;37.81;101419.56;4996760;28;96846;-71
2023/05/22 07:17:45;;;;;;;2.08;1.88;;;;;;;25.77;38.05;101423.34;5004373;28;97584;-71
2023/05/22 07:20:14;;;;;;;2.33;1.90;;;;;;;25.78;37.77;101424.22;5010911;28;96881;-71
2023/05/22 07:22:46;;;;;;;2.30;2.10;;;;;;;25.77;37.73;101425.25;4997928;28;97367;-71
2023/05/22 07:25:13;;;;;;;2.08;1.88;;;;;;;25.77;37.91;101431.63;5011524;28;96985;-71
2023/05/22 07:27:39;;;;;;;2.10;1.90;;;;;;;25.78;37.61;101430.56;5012598;28;97423;-71
2023/05/22 07:30:07;;;;;;;1.92;1.80;;;;;;;25.79;37.63;101429.53;5014097;28;97182;-71
2023/05/22 07:32:35;;;;;;;2.15;2.00;;;;;;;25.78;37.83;101425.06;5013972;28;97073;-72
2023/05/22 07:35:03;;;;;;;2.08;1.88;;;;;;;25.79;37.84;101423.16;5003166;28;99223;-71
2023/05/22 07:37:31;;;;;;;2.10;1.90;;;;;;;25.79;37.69;101417.66;4994552;28;97271;-71
2023/05/22 07:39:58;;;;;;;2.25;2.05;;;;;;;25.79;37.63;101421.25;5012932;28;96621;-71
2023/05/22 07:42:26;;;;;;;2.10;1.90;;;;;;;25.79;37.60;101424.00;5014113;28;96858;-71
2023/05/22 07:44:53;;;;;;;2.20;1.92;;;;;;;25.79;37.61;101424.00;5012833;28;98061;-71
2023/05/22 07:47:21;;;;;;;2.10;1.90;;;;;;;25.79;37.81;101432.28;5013266;28;97209;-71
2023/05/22 07:49:49;;;;;;;1.80;1.70;;;;;;;25.80;37.92;101425.72;5013260;28;97506;-70
2023/05/22 07:52:16;;;;;;;2.20;2.00;;;;;;;25.82;37.62;101425.53;5013467;28;96967;-71
2023/05/22 07:54:43;;;;;;;2.15;1.95;;;;;;;25.81;37.83;101427.44;4995691;28;97776;-71
2023/05/22 07:57:12;;;;;;;1.98;1.88;;;;;;;25.82;37.87;101420.03;5012126;28;99441;-72
2023/05/22 07:59:42;;;;;;;2.08;1.88;;;;;;;25.81;37.66;101424.66;5003485;28;96933;-71
2023/05/22 08:02:09;;;;;;;1.80;1.70;;;;;;;25.82;37.67;101426.38;5012558;28;96890;-71
2023/05/22 08:04:36;;;;;;;1.88;1.70;;;;;;;25.83;37.73;101427.22;5013685;28;97668;-71
2023/05/22 08:07:03;;;;;;;1.80;1.70;;;;;;;25.83;37.65;101433.59;5013749;28;96854;-71
2023/05/22 08:09:30;;;;;;;1.77;1.67;;;;;;;25.84;37.74;101429.78;5012246;28;96818;-71
2023/05/22 08:11:56;;;;;;;1.70;1.60;;;;;;;25.84;37.77;101426.19;5010081;28;96822;-71
2023/05/22 08:14:23;;;;;;;2.25;2.05;;;;;;;25.84;37.81;101429.78;5011309;28;96775;-71
2023/05/22 08:16:49;;;;;;;1.83;1.73;;;;;;;25.85;37.68;101436.16;5011023;28;97168;-71
2023/05/22 08:19:16;;;;;;;1.88;1.77;;;;;;;25.85;37.81;101427.88;5011728;28;97165;-71
2023/05/22 08:21:43;;;;;;;1.83;1.73;;;;;;;25.84;37.61;101432.53;5011177;28;96675;-71
2023/05/22 08:24:10;;;;;;;2.10;1.90;;;;;;;25.85;37.70;101425.13;5010226;28;96755;-71
2023/05/22 08:26:37;;;;;;;2.15;1.95;;;;;;;25.85;37.88;101426.00;5009284;28;97772;-71
2023/05/22 08:29:04;;;;;;;2.15;1.95;;;;;;;25.86;38.08;101429.59;5011630;28;97045;-71
2023/05/22 08:31:33;;;;;;;2.03;1.90;;;;;;;25.86;37.86;101427.69;4991523;28;97239;-71
2023/05/22 08:34:01;;;;;;;2.00;1.80;;;;;;;25.87;37.75;101434.03;5011085;28;96683;-71
2023/05/22 08:36:30;;;;;;;2.20;2.00;;;;;;;25.87;37.74;101429.41;5012101;28;97428;-71
2023/05/22 08:38:57;;;;;;;1.83;1.63;;;;;;;25.87;37.89;101426.66;5010514;28;96745;-71
2023/05/22 08:41:23;;;;;;;2.30;2.05;;;;;;;25.88;37.78;101424.75;5010151;28;97247;-71
2023/05/22 08:43:50;;;;;;;2.10;1.90;;;;;;;25.88;37.50;101425.59;5008578;28;98345;-70
2023/05/22 08:46:18;;;;;;;2.10;1.90;;;;;;;25.89;37.65;101420.94;4991884;28;98715;-71
2023/05/22 08:48:46;;;;;;;2.20;2.00;;;;;;;25.89;37.47;101416.28;5001147;28;96789;-71
2023/05/22 08:51:18;;;;;;;2.15;1.70;;;;;;;25.90;37.49;101417.16;5009908;28;97182;-71
2023/05/22 08:53:47;;;;;;;1.77;1.67;;;;;;;25.89;37.55;101420.94;5007689;28;99743;-72
2023/05/22 08:56:14;;;;;;;2.00;1.80;;;;;;;25.89;37.77;101419.03;5010573;28;97043;-71
2023/05/22 08:58:41;;;;;;;1.80;1.70;;;;;;;25.90;37.72;101419.91;5006060;28;96537;-71
2023/05/22 09:01:07;;;;;;;2.13;1.92;;;;;;;25.90;37.79;101418.00;5005499;28;96774;-71
2023/05/22 09:03:35;;;;;;;1.88;1.67;;;;;;;25.90;37.35;101423.50;5011150;28;96800;-71
2023/05/22 09:06:03;;;;;;;2.10;1.90;;;;;;;25.91;37.77;101421.59;5010816;28;97365;-71
2023/05/22 09:08:30;;;;;;;2.20;2.00;;;;;;;25.91;37.44;101416.94;5011084;28;96922;-72
2023/05/22 09:10:56;;;;;;;2.17;1.98;;;;;;;25.92;37.61;101417.81;5010805;28;97287;-71
2023/05/22 09:13:28;;;;;;;1.67;1.58;;;;;;;25.92;37.78;101421.41;4998728;28;96900;-71
2023/05/22 09:16:06;;;;;;;2.10;1.90;;;;;;;25.92;37.65;101421.41;5010793;28;98471;-71
2023/05/22 09:18:32;;;;;;;2.00;1.88;;;;;;;25.91;37.48;101425.22;4999533;28;97180;-71
2023/05/22 09:21:00;;;;;;;2.28;2.08;;;;;;;25.93;37.75;101427.75;5010867;28;96739;-71
2023/05/22 09:23:28;;;;;;;1.85;1.75;;;;;;;25.92;37.76;101426.91;5010611;28;97664;-71
2023/05/22 09:25:56;;;;;;;2.38;2.17;;;;;;;25.92;37.83;101415.91;5010878;28;96736;-71
2023/05/22 09:28:23;;;;;;;2.20;2.00;;;;;;;25.93;37.70;101417.59;5011554;28;96697;-71
2023/05/22 09:30:52;;;;;;;1.85;1.73;;;;;;;25.93;37.33;101411.25;5011126;28;96855;-71
2023/05/22 09:33:19;;;;;;;2.20;2.00;;;;;;;25.94;37.73;101415.72;5008806;28;99719;-71
2023/05/22 09:35:47;;;;;;;1.80;1.70;;;;;;;25.92;37.73;101415.91;5009740;28;97030;-71
2023/05/22 09:38:14;;;;;;;1.95;1.85;;;;;;;25.92;37.29;101407.66;5011277;28;97111;-71
2023/05/22 09:40:40;;;;;;;2.15;1.95;;;;;;;25.93;37.79;101406.59;5011050;28;97299;-71
2023/05/22 09:43:11;;;;;;;1.90;1.70;;;;;;;25.93;37.57;101411.25;5011309;28;97295;-71
2023/05/22 09:45:38;;;;;;;2.30;1.85;;;;;;;25.93;37.59;101409.34;5010642;28;97468;-71
2023/05/22 09:48:07;;;;;;;1.95;1.85;;;;;;;25.94;37.57;101413.81;5009516;28;96947;-71
2023/05/22 09:50:38;;;;;;;2.25;2.05;;;;;;;25.94;37.72;101402.78;5009705;28;96954;-71
2023/05/22 09:53:07;;;;;;;2.00;1.80;;;;;;;25.94;37.64;101412.94;5010518;28;97473;-72
2023/05/22 09:55:35;;;;;;;2.00;1.80;;;;;;;25.94;37.66;101408.31;5008479;28;97077;-71
2023/05/22 09:58:03;;;;;;;2.13;1.92;;;;;;;25.94;37.64;101402.78;5009808;28;96804;-71
2023/05/22 10:00:33;;;;;;;2.20;2.00;;;;;;;25.96;37.77;101406.22;5009827;28;97289;-71
2023/05/22 10:03:10;;;;;;;2.55;2.35;;;;;;;25.95;37.71;101398.16;5010094;28;98443;-71
2023/05/22 10:05:42;;;;;;;1.80;1.70;;;;;;;25.95;37.62;101404.50;5000128;28;97681;-71
2023/05/22 10:08:19;;;;;;;2.10;1.90;;;;;;;25.95;37.66;101404.50;5008702;28;97148;-71
2023/05/22 10:10:50;;;;;;;2.33;2.13;;;;;;;25.94;37.70;101397.28;5009357;28;96812;-71
2023/05/22 10:13:19;;;;;;;1.90;1.80;;;;;;;25.95;37.66;101398.16;5009835;28;97234;-71
2023/05/22 10:15:47;;;;;;;2.28;2.08;;;;;;;25.95;37.84;101395.41;5008514;28;96873;-71
2023/05/22 10:18:15;;;;;;;2.38;2.17;;;;;;;25.95;37.68;101393.50;5007492;28;96939;-71
2023/05/22 10:20:43;;;;;;;2.53;2.28;;;;;;;25.95;37.65;101385.25;5010701;28;96800;-71
2023/05/22 10:23:10;;;;;;;2.13;1.92;;;;;;;25.96;37.77;101392.44;5008192;28;96705;-71
2023/05/22 10:25:37;;;;;;;2.20;2.00;;;;;;;25.96;37.51;101394.34;5009661;28;96804;-71
2023/05/22 10:28:04;;;;;;;1.90;1.80;;;;;;;25.96;37.70;101395.19;5009791;28;97085;-71
2023/05/22 10:30:34;;;;;;;2.33;2.13;;;;;;;25.97;37.57;101390.53;5009537;28;96900;-71
2023/05/22 10:33:35;;;;;;;2.25;2.05;;;;;;;25.96;37.71;101389.69;4984066;28;97463;-71
2023/05/22 10:36:07;;;;;;;;;;;;;;;25.92;37.52;101387.53;5005920;28;97061;-71
2023/05/22 10:38:51;;;;;;;2.25;2.05;;;;;;;25.92;37.81;101388.38;4997210;28;97220;-71
2023/05/22 10:41:18;;;;;;;2.17;1.98;;;;;;;25.92;37.69;101393.03;4999870;28;96754;-71
2023/05/22 10:43:47;;;;;;;2.08;1.98;;;;;;;25.94;37.52;101391.78;5009149;28;98067;-71
2023/05/22 10:46:14;;;;;;;2.10;1.90;;;;;;;25.95;37.65;101381.63;5009227;28;97477;-71
2023/05/22 10:48:48;;;;;;;2.10;1.90;;;;;;;25.96;37.78;101391.59;5008140;28;97226;-71
2023/05/22 10:51:19;;;;;;;2.10;1.90;;;;;;;25.96;37.60;101384.19;5009319;28;96627;-71
2023/05/22 10:53:54;;;;;;;2.15;1.92;;;;;;;25.96;37.74;101381.44;5009026;28;97045;-71
2023/05/22 10:56:21;;;;;;;1.92;1.83;;;;;;;25.96;37.72;101375.94;5005970;28;97139;-71
2023/05/22 10:58:55;;;;;;;2.55;2.35;;;;;;;25.97;37.76;101379.53;5007999;28;96840;-71
2023/05/22 11:01:24;;;;;;;2.10;1.90;;;;;;;25.98;37.71;101378.47;5006190;28;97226;-71
2023/05/22 11:04:03;;;;;;;2.55;2.20;;;;;;;25.98;37.74;101386.75;5007097;28;97375;-71
2023/05/22 11:06:46;;;;;;;1.98;1.83;;;;;;;25.98;38.03;101373.84;5019603;28;97416;-71
2023/05/22 11:09:20;;;;;;;2.35;2.15;;;;;;;25.98;37.63;101378.47;5003034;28;96804;-72
2023/05/22 11:12:16;;;;;;;2.40;2.20;;;;;;;25.98;37.57;101372.97;5009223;28;96858;-71
2023/05/22 11:14:48;;;;;;;2.17;1.98;;;;;;;25.97;37.76;101380.38;5007296;28;97802;-71
2023/05/22 11:17:29;;;;;;;2.28;2.08;;;;;;;26.00;37.64;101372.78;5008785;28;96821;-71
2023/05/22 11:20:04;;;;;;;2.50;2.30;;;;;;;25.97;37.89;101374.88;4996700;28;96779;-71
2023/05/22 11:22:38;;;;;;;2.20;2.00;;;;;;;25.99;37.83;101366.44;5004065;28;96976;-72
2023/05/22 11:25:16;;;;;;;2.13;1.92;;;;;;;26.00;37.72;101367.28;5006974;28;96895;-72
2023/05/22 11:27:45;;;;;;;2.38;2.17;;;;;;;25.97;37.70;101363.88;5009037;28;96643;-71
2023/05/22 11:30:13;;;;;;;2.20;2.00;;;;;;;26.00;37.69;101364.53;5009123;28;96832;-71
2023/05/22 11:32:43;;;;;;;2.28;2.08;;;;;;;26.00;37.64;101370.88;5005972;28;96737;-71
2023/05/22 11:35:19;;;;;;;2.20;2.03;;;;;;;26.01;37.60;101364.38;5008283;28;96761;-71